Time;durP1;ratioP1;P1;durP2;ratioP2;P2;SDS_P1;SDS_P2;PMS_P1;PMS_P2;Temp;Humidity;BMP_temperature;BMP_pressure;BME280_temperature;BME280_humidity;BME280_pressure;Samples;Min_cycle;Max_cycle;Signal;HPM_P1;HPM_P2
2021/07/01 00:05:16;;;;;;;2.60;1.93;;;;;;;15.35;100.00;98733.13;10461682;28;20547;-84
2021/07/01 00:10:36;;;;;;;1.53;1.43;;;;;;;15.38;100.00;98735.03;10463609;28;20647;-84
2021/07/01 00:15:55;;;;;;;2.20;2.00;;;;;;;15.34;100.00;98728.03;10463668;28;20740;-84
2021/07/01 00:21:14;;;;;;;3.17;1.87;;;;;;;15.26;100.00;98741.34;10461106;28;20168;-84
2021/07/01 00:26:34;;;;;;;2.60;1.83;;;;;;;15.30;100.00;98736.47;10462117;28;20282;-84
2021/07/01 00:31:53;;;;;;;2.07;1.87;;;;;;;15.32;100.00;98728.50;10461988;28;20210;-84
2021/07/01 00:37:12;;;;;;;3.13;1.97;;;;;;;15.36;100.00;98742.25;10462510;28;20167;-84
2021/07/01 00:42:31;;;;;;;2.60;2.10;;;;;;;15.32;100.00;98739.56;10463761;28;20191;-84
2021/07/01 00:47:50;;;;;;;3.70;1.87;;;;;;;15.34;100.00;98748.25;10459598;28;20207;-84
2021/07/01 00:53:09;;;;;;;3.77;1.67;;;;;;;15.28;100.00;98738.88;10461323;28;20191;-84
2021/07/01 00:58:29;;;;;;;2.30;1.87;;;;;;;15.31;100.00;98745.53;10460605;28;20183;-84
2021/07/01 01:03:49;;;;;;;2.93;2.20;;;;;;;15.24;100.00;98743.75;10460218;28;20179;-84
2021/07/01 01:09:09;;;;;;;2.80;1.70;;;;;;;15.22;100.00;98740.63;10460710;28;20206;-84
2021/07/01 01:14:28;;;;;;;2.60;2.37;;;;;;;15.18;100.00;98737.16;10459772;28;20211;-83
2021/07/01 01:19:47;;;;;;;2.83;2.63;;;;;;;15.24;100.00;98738.22;10458910;28;20638;-84
2021/07/01 01:25:07;;;;;;;4.73;2.63;;;;;;;15.17;100.00;98740.38;10417373;28;20183;-84
2021/07/01 01:30:26;;;;;;;3.30;2.23;;;;;;;15.21;100.00;98735.50;10418388;28;20547;-83
2021/07/01 01:35:45;;;;;;;6.27;3.23;;;;;;;15.24;100.00;98741.00;10416400;28;20219;-84
2021/07/01 01:41:03;;;;;;;4.07;3.77;;;;;;;15.25;100.00;98739.78;10417740;28;20196;-83
2021/07/01 01:46:23;;;;;;;6.13;2.90;;;;;;;15.37;100.00;98743.81;10451679;28;20220;-84
2021/07/01 01:51:41;;;;;;;7.70;4.03;;;;;;;15.41;100.00;98742.50;10457011;28;20203;-84
2021/07/01 01:57:00;;;;;;;4.80;4.17;;;;;;;15.44;100.00;98741.59;10458488;28;20172;-84
2021/07/01 02:02:19;;;;;;;3.77;2.73;;;;;;;15.49;100.00;98743.03;10457478;28;20670;-84
2021/07/01 02:07:39;;;;;;;4.40;3.90;;;;;;;15.51;100.00;98735.06;10457513;28;20199;-84
2021/07/01 02:12:58;;;;;;;4.77;3.23;;;;;;;15.47;100.00;98734.38;10457519;28;20183;-84
2021/07/01 02:18:17;;;;;;;7.13;4.00;;;;;;;15.46;100.00;98739.16;10456728;28;20206;-84
2021/07/01 02:23:36;;;;;;;5.10;3.57;;;;;;;15.51;100.00;98741.38;10457943;28;20684;-84
2021/07/01 02:28:55;;;;;;;4.43;4.03;;;;;;;15.37;100.00;98749.34;10455948;28;20352;-84
2021/07/01 02:34:14;;;;;;;4.83;4.27;;;;;;;15.37;100.00;98747.34;10455376;28;20164;-84
2021/07/01 02:39:33;;;;;;;6.10;3.53;;;;;;;15.23;100.00;98749.69;10456488;28;20171;-84
2021/07/01 02:44:52;;;;;;;5.63;4.30;;;;;;;15.20;100.00;98750.59;10456095;28;20642;-84
2021/07/01 02:50:11;;;;;;;6.27;5.20;;;;;;;15.17;100.00;98755.00;10453682;28;20721;-84
2021/07/01 02:55:30;;;;;;;10.30;5.87;;;;;;;15.15;100.00;98770.50;10456313;28;20262;-83
2021/07/01 03:00:49;;;;;;;15.77;6.23;;;;;;;14.97;100.00;98763.88;10456158;28;20626;-84
2021/07/01 03:06:09;;;;;;;8.03;4.63;;;;;;;14.89;100.00;98766.06;10455087;28;20171;-84
2021/07/01 03:11:28;;;;;;;9.70;4.93;;;;;;;14.98;100.00;98776.50;10456623;28;20211;-84
2021/07/01 03:16:47;;;;;;;8.83;5.70;;;;;;;14.99;100.00;98769.75;10455070;28;20235;-85
2021/07/01 03:22:06;;;;;;;7.83;5.57;;;;;;;14.98;100.00;98768.19;10456072;28;20183;-84
2021/07/01 03:27:25;;;;;;;9.80;5.70;;;;;;;14.87;100.00;98771.25;10454572;28;20191;-84
2021/07/01 03:32:44;;;;;;;9.47;6.70;;;;;;;14.87;100.00;98767.69;10454148;28;20613;-84
2021/07/01 03:38:03;;;;;;;8.80;6.43;;;;;;;14.71;100.00;98770.47;10455400;28;20638;-83
2021/07/01 03:43:22;;;;;;;6.23;5.00;;;;;;;14.53;100.00;98782.00;10453664;28;20199;-83
2021/07/01 03:48:41;;;;;;;8.83;5.70;;;;;;;14.53;100.00;98781.25;10453301;28;20215;-82
2021/07/01 03:54:00;;;;;;;7.20;4.93;;;;;;;14.55;100.00;98778.78;10453869;28;20584;-83
2021/07/01 03:59:19;;;;;;;7.60;5.40;;;;;;;14.53;100.00;98792.31;10456252;28;20179;-83
2021/07/01 04:04:38;;;;;;;5.77;5.20;;;;;;;14.63;100.00;98788.47;10460239;28;20183;-83
2021/07/01 04:10:01;;;;;;;9.30;5.10;;;;;;;14.63;100.00;98791.25;10461815;28;20203;-83
2021/07/01 04:15:20;;;;;;;4.60;4.20;;;;;;;14.71;100.00;98792.63;10460248;28;20211;-84
2021/07/01 04:20:40;;;;;;;4.27;2.73;;;;;;;14.75;100.00;98805.19;10460666;28;20175;-84
2021/07/01 04:25:59;;;;;;;4.00;3.03;;;;;;;14.70;100.00;98802.19;10460719;28;20180;-83
2021/07/01 04:31:19;;;;;;;2.67;2.40;;;;;;;14.71;100.00;98801.72;10460988;28;20203;-84
2021/07/01 04:36:39;;;;;;;2.33;2.13;;;;;;;14.65;100.00;98809.00;10459136;28;20175;-83
2021/07/01 04:41:59;;;;;;;2.50;2.30;;;;;;;14.62;100.00;98804.31;10460821;28;20203;-83
2021/07/01 04:47:19;;;;;;;3.40;3.10;;;;;;;14.68;100.00;98810.91;10459481;28;20187;-83
2021/07/01 04:52:39;;;;;;;2.67;1.90;;;;;;;14.63;100.00;98814.19;10460669;28;20183;-83
2021/07/01 04:57:57;;;;;;;3.07;1.77;;;;;;;14.74;100.00;98811.16;10459353;28;20179;-83
2021/07/01 05:03:16;;;;;;;2.20;2.00;;;;;;;14.71;100.00;98810.03;10457772;28;20236;-82
2021/07/01 05:08:35;;;;;;;3.37;3.07;;;;;;;14.58;100.00;98802.84;10458348;28;20211;-83
2021/07/01 05:13:54;;;;;;;2.80;2.43;;;;;;;14.56;100.00;98817.13;10458181;28;20227;-84
2021/07/01 05:19:13;;;;;;;3.63;3.03;;;;;;;14.61;100.00;98818.59;10458076;28;20258;-84
2021/07/01 05:24:32;;;;;;;4.47;3.73;;;;;;;14.66;100.00;98816.06;10458133;28;20233;-84
2021/07/01 05:29:51;;;;;;;3.57;3.27;;;;;;;14.73;100.00;98823.44;10458777;28;20214;-84
2021/07/01 05:35:10;;;;;;;4.97;3.43;;;;;;;14.78;100.00;98826.47;10435227;28;20540;-84
2021/07/01 05:40:29;;;;;;;3.90;2.77;;;;;;;14.93;100.00;98832.44;10451816;28;20286;-84
2021/07/01 05:45:48;;;;;;;3.63;2.83;;;;;;;14.86;100.00;98835.41;10458379;28;20183;-84
2021/07/01 05:51:09;;;;;;;2.83;2.63;;;;;;;14.83;100.00;98839.78;10456568;28;20203;-84
2021/07/01 05:56:36;;;;;;;3.90;2.60;;;;;;;14.83;100.00;98850.09;10456864;28;20183;-84
2021/07/01 06:01:55;;;;;;;2.40;2.20;;;;;;;14.99;100.00;98852.88;10456893;28;20697;-84
2021/07/01 06:07:19;;;;;;;2.53;2.27;;;;;;;14.92;100.00;98848.28;10448616;28;20186;-84
2021/07/01 06:12:38;;;;;;;4.67;2.43;;;;;;;14.91;100.00;98852.25;10435841;28;20172;-84
2021/07/01 06:17:58;;;;;;;3.60;3.30;;;;;;;14.75;100.00;98860.56;10454616;28;20228;-83
2021/07/01 06:23:18;;;;;;;5.83;3.17;;;;;;;14.69;100.00;98865.06;10456816;28;20175;-85
2021/07/01 06:28:43;;;;;;;3.37;3.17;;;;;;;14.70;100.00;98863.84;10456652;28;20286;-84
2021/07/01 06:34:02;;;;;;;3.87;3.13;;;;;;;14.80;100.00;98860.06;10452621;28;20202;-84
2021/07/01 06:39:23;;;;;;;4.57;4.17;;;;;;;14.81;100.00;98871.91;10454222;28;20659;-83
2021/07/01 06:44:43;;;;;;;5.70;4.03;;;;;;;14.82;100.00;98877.00;10452913;28;20236;-84
2021/07/01 06:50:06;;;;;;;4.60;4.13;;;;;;;14.73;100.00;98876.06;10450976;28;20230;-83
2021/07/01 06:55:26;;;;;;;7.40;4.43;;;;;;;14.73;100.00;98884.38;10454404;28;20183;-83
2021/07/01 07:00:46;;;;;;;5.77;4.43;;;;;;;14.70;100.00;98893.56;10454336;28;20179;-84
2021/07/01 07:06:05;;;;;;;8.00;4.73;;;;;;;14.75;100.00;98887.50;10452076;28;20262;-84
2021/07/01 07:11:24;;;;;;;19.17;5.77;;;;;;;14.72;100.00;98893.88;10453122;28;20210;-84
2021/07/01 07:16:48;;;;;;;6.80;4.20;;;;;;;15.11;100.00;98888.16;10442962;28;20223;-84
2021/07/01 07:22:08;;;;;;;4.80;3.73;;;;;;;16.05;100.00;98878.13;10454584;28;20179;-84
2021/07/01 07:27:30;;;;;;;4.93;4.00;;;;;;;16.08;100.00;98877.22;10454481;28;20176;-84
2021/07/01 07:32:50;;;;;;;5.17;3.50;;;;;;;15.99;100.00;98882.66;10454353;28;20211;-84
2021/07/01 07:38:09;;;;;;;3.57;2.90;;;;;;;16.12;100.00;98883.47;10462001;28;20669;-84
2021/07/01 07:43:28;;;;;;;3.70;3.07;;;;;;;16.02;100.00;98887.31;10460290;28;20179;-84
2021/07/01 07:48:47;;;;;;;4.13;3.30;;;;;;;15.70;100.00;98897.75;10460798;28;20211;-84
2021/07/01 07:54:07;;;;;;;4.90;3.53;;;;;;;15.82;100.00;98905.31;10461610;28;20191;-84
2021/07/01 07:59:30;;;;;;;7.03;3.90;;;;;;;15.94;100.00;98896.28;10446988;28;20206;-84
2021/07/01 08:04:50;;;;;;;3.50;2.73;;;;;;;15.85;100.00;98910.00;10460589;28;20533;-84
2021/07/01 08:10:12;;;;;;;2.40;2.07;;;;;;;15.45;100.00;98917.81;10463272;28;20211;-83
2021/07/01 08:15:33;;;;;;;3.07;2.77;;;;;;;15.28;100.00;98910.72;10461307;28;20298;-84
2021/07/01 08:20:53;;;;;;;2.40;2.20;;;;;;;15.52;100.00;98908.53;10460634;28;20629;-83
2021/07/01 08:26:13;;;;;;;3.10;2.20;;;;;;;15.73;100.00;98908.75;10460843;28;20199;-86
2021/07/01 08:31:33;;;;;;;2.60;1.87;;;;;;;15.69;100.00;98910.06;10461042;28;20673;-84
2021/07/01 08:36:53;;;;;;;5.03;2.03;;;;;;;15.77;100.00;98903.09;10460255;28;20172;-84
2021/07/01 08:42:14;;;;;;;3.13;1.90;;;;;;;15.96;100.00;98917.59;10460333;28;20172;-84
2021/07/01 08:47:34;;;;;;;2.87;2.30;;;;;;;15.94;100.00;98919.25;10459529;28;20211;-86
2021/07/01 08:53:04;;;;;;;2.07;1.80;;;;;;;16.01;100.00;98917.06;10459796;28;20602;-85
2021/07/01 08:58:24;;;;;;;3.77;1.83;;;;;;;15.75;100.00;98930.50;10460639;28;20180;-85
2021/07/01 09:03:44;;;;;;;5.40;1.97;;;;;;;15.52;100.00;98941.81;10457893;28;20569;-84
2021/07/01 09:09:11;;;;;;;3.27;2.40;;;;;;;15.19;100.00;98943.75;10460008;28;20244;-85
2021/07/01 09:14:31;;;;;;;3.87;1.80;;;;;;;15.37;100.00;98951.69;10459425;28;20215;-85
2021/07/01 09:19:54;;;;;;;2.53;1.90;;;;;;;15.03;100.00;98947.75;10458083;28;20262;-84
2021/07/01 09:25:15;;;;;;;3.10;2.27;;;;;;;15.31;100.00;98945.09;10459327;28;20179;-84
2021/07/01 09:30:34;;;;;;;2.10;1.90;;;;;;;15.63;100.00;98959.72;10457478;28;20740;-85
2021/07/01 09:35:54;;;;;;;1.80;1.37;;;;;;;15.47;100.00;98953.41;10457760;28;20184;-84
2021/07/01 09:41:14;;;;;;;1.80;1.50;;;;;;;15.10;100.00;98958.69;10460584;28;20187;-83
2021/07/01 09:46:36;;;;;;;2.40;2.17;;;;;;;14.88;100.00;98954.81;10458428;28;20656;-84
2021/07/01 09:51:59;;;;;;;1.40;1.07;;;;;;;15.03;100.00;98970.69;10455431;28;20294;-84
2021/07/01 09:57:24;;;;;;;1.30;1.17;;;;;;;15.12;100.00;98968.13;10456211;28;20267;-84
2021/07/01 10:02:43;;;;;;;1.37;0.97;;;;;;;15.52;100.00;98970.28;10456569;28;20171;-84
2021/07/01 10:08:03;;;;;;;1.60;0.90;;;;;;;15.52;100.00;98964.75;10477111;28;20293;-84
2021/07/01 10:13:23;;;;;;;2.40;1.63;;;;;;;15.69;100.00;98969.06;10497751;28;20665;-84
2021/07/01 10:18:43;;;;;;;2.10;1.30;;;;;;;15.91;100.00;98956.22;10497685;28;20589;-83
2021/07/01 10:24:12;;;;;;;1.53;1.07;;;;;;;15.83;100.00;98959.59;10497551;28;20171;-83
2021/07/01 10:29:39;;;;;;;3.30;1.73;;;;;;;15.79;100.00;98951.38;10473624;28;20206;-84
2021/07/01 10:34:58;;;;;;;1.60;1.30;;;;;;;15.69;100.00;98968.28;10454295;28;20179;-84
2021/07/01 10:40:20;;;;;;;2.73;2.10;;;;;;;15.92;100.00;98954.97;10455483;28;20195;-83
2021/07/01 10:45:51;;;;;;;9.80;1.77;;;;;;;15.96;100.00;98961.22;10456639;28;20583;-83
2021/07/01 10:51:13;;;;;;;2.20;1.90;;;;;;;16.13;100.00;98955.16;10453407;28;20207;-83
2021/07/01 10:56:42;;;;;;;1.30;0.97;;;;;;;15.95;100.00;98958.88;10455191;28;20258;-83
2021/07/01 11:02:05;;;;;;;2.40;1.80;;;;;;;16.31;100.00;98958.25;10455742;28;20175;-84
2021/07/01 11:07:27;;;;;;;2.47;1.73;;;;;;;16.49;100.00;98961.31;10455188;28;20849;-84
2021/07/01 11:12:47;;;;;;;2.50;1.90;;;;;;;17.06;100.00;98967.47;10463031;28;20577;-83
2021/07/01 11:18:11;;;;;;;1.50;1.40;;;;;;;17.26;100.00;98973.59;10462434;28;20585;-85
2021/07/01 11:23:30;;;;;;;2.80;2.27;;;;;;;17.80;100.00;98952.72;10464186;28;20175;-84
2021/07/01 11:28:50;;;;;;;3.40;2.67;;;;;;;18.04;100.00;98958.63;10464032;28;20211;-83
2021/07/01 11:34:11;;;;;;;3.70;2.10;;;;;;;18.65;100.00;98956.75;10462141;28;20246;-82
2021/07/01 11:39:30;;;;;;;2.03;1.83;;;;;;;18.64;100.00;98958.78;10464386;28;20203;-84
2021/07/01 11:44:50;;;;;;;3.27;2.40;;;;;;;17.45;100.00;98964.22;10463421;28;20191;-83
2021/07/01 11:50:10;;;;;;;3.67;2.10;;;;;;;17.30;100.00;98965.16;10463533;28;20199;-82
2021/07/01 11:55:29;;;;;;;1.90;1.80;;;;;;;17.01;100.00;98961.69;10463936;28;20175;-83
2021/07/01 12:00:49;;;;;;;4.20;3.10;;;;;;;16.80;100.00;98977.00;10466444;28;20254;-83
2021/07/01 12:06:23;;;;;;;2.17;1.97;;;;;;;16.92;100.00;98973.47;10462710;28;20179;-85
2021/07/01 12:12:21;;;;;;;3.10;2.50;;;;;;;17.43;100.00;98963.91;10462505;28;20241;-84
2021/07/01 12:17:51;;;;;;;5.00;2.60;;;;;;;17.40;100.00;98972.38;10445226;28;20200;-84
2021/07/01 12:23:13;;;;;;;3.37;2.03;;;;;;;17.11;100.00;98977.25;10462491;28;20175;-85
2021/07/01 12:28:32;;;;;;;1.63;1.20;;;;;;;16.82;100.00;98977.34;10463852;28;20211;-85
2021/07/01 12:33:58;;;;;;;1.83;1.63;;;;;;;17.13;100.00;98985.94;10460926;28;20172;-84
2021/07/01 12:39:21;;;;;;;1.60;1.27;;;;;;;17.28;100.00;98979.50;10465948;28;20195;-84
2021/07/01 12:44:43;;;;;;;2.17;1.40;;;;;;;17.25;100.00;98982.34;10461931;28;20191;-86
2021/07/01 12:50:08;;;;;;;1.10;0.83;;;;;;;17.73;100.00;98979.97;10461802;28;20214;-86
2021/07/01 12:55:27;;;;;;;1.43;1.00;;;;;;;17.30;100.00;98981.84;10464756;28;20172;-84
2021/07/01 13:00:46;;;;;;;1.10;0.83;;;;;;;16.87;100.00;98987.94;10467266;28;20211;-83
2021/07/01 13:06:06;;;;;;;1.20;0.83;;;;;;;16.89;100.00;99001.38;10464741;28;20175;-84
2021/07/01 13:11:25;;;;;;;1.00;0.60;;;;;;;17.15;100.00;98992.59;10473207;28;20211;-81
2021/07/01 13:17:08;;;;;;;1.10;0.70;;;;;;;17.34;100.00;98999.16;10462190;28;20612;-83
2021/07/01 13:22:30;;;;;;;1.23;1.13;;;;;;;17.38;100.00;98995.06;10461182;28;20629;-85
2021/07/01 13:27:49;;;;;;;1.50;1.33;;;;;;;17.25;100.00;98999.81;10461310;28;20744;-82
2021/07/01 13:33:10;;;;;;;2.13;1.83;;;;;;;17.05;100.00;99010.38;10458283;28;20184;-82
2021/07/01 13:38:29;;;;;;;1.40;1.30;;;;;;;16.72;100.00;99007.47;10459318;28;20203;-83
2021/07/01 13:43:48;;;;;;;1.47;1.03;;;;;;;16.31;100.00;99016.56;10459461;28;20179;-80
2021/07/01 13:49:10;;;;;;;2.97;2.77;;;;;;;16.11;100.00;99023.44;10456046;28;20203;-80
2021/07/01 13:54:31;;;;;;;2.03;1.47;;;;;;;15.95;100.00;99029.03;10455966;28;20255;-80
2021/07/01 13:59:57;;;;;;;1.40;1.23;;;;;;;16.14;100.00;99028.13;10457208;28;20532;-80
2021/07/01 14:05:31;;;;;;;1.40;1.27;;;;;;;16.25;100.00;99015.50;10456830;28;20176;-79
2021/07/01 14:11:04;;;;;;;1.60;1.50;;;;;;;16.70;100.00;99027.34;10457220;28;20274;-80
2021/07/01 14:16:31;;;;;;;3.40;1.70;;;;;;;16.99;100.00;99028.84;10456154;28;20224;-81
2021/07/01 14:21:51;;;;;;;1.50;1.40;;;;;;;17.29;100.00;99024.78;10455590;28;20179;-79
2021/07/01 14:27:10;;;;;;;3.37;1.43;;;;;;;17.11;100.00;99019.75;10455974;28;20176;-78
2021/07/01 14:32:35;;;;;;;4.23;1.53;;;;;;;17.17;100.00;99023.53;10454062;28;20199;-79
2021/07/01 14:38:05;;;;;;;2.10;1.83;;;;;;;17.09;100.00;99026.94;10456599;28;20235;-79
2021/07/01 14:43:30;;;;;;;1.63;1.37;;;;;;;16.91;100.00;99037.84;10456517;28;20183;-81
2021/07/01 14:48:51;;;;;;;3.70;1.83;;;;;;;16.62;100.00;99041.88;10455714;28;20708;-81
2021/07/01 14:54:13;;;;;;;2.37;2.17;;;;;;;16.46;100.00;99039.16;10456696;28;20273;-80
2021/07/01 14:59:55;;;;;;;4.43;2.93;;;;;;;15.93;100.00;99050.84;10455487;28;20634;-81
2021/07/01 15:05:16;;;;;;;3.67;2.70;;;;;;;15.84;100.00;99053.47;10456878;28;20180;-80
2021/07/01 15:10:35;;;;;;;5.10;3.17;;;;;;;15.93;100.00;99048.09;10462145;28;20207;-80
2021/07/01 15:15:54;;;;;;;4.00;3.47;;;;;;;16.10;100.00;99052.41;10461071;28;20215;-79
2021/07/01 15:21:14;;;;;;;13.10;3.17;;;;;;;16.31;100.00;99055.44;10456857;28;20219;-79
2021/07/01 15:26:34;;;;;;;3.17;2.87;;;;;;;16.40;100.00;99058.34;10461000;28;20175;-80
2021/07/01 15:31:53;;;;;;;4.00;3.27;;;;;;;16.51;100.00;99058.06;10455090;28;20211;-79
2021/07/01 15:37:12;;;;;;;5.03;3.10;;;;;;;16.71;100.00;99055.91;10424158;28;20569;-80
2021/07/01 15:42:31;;;;;;;7.90;3.43;;;;;;;16.85;100.00;99057.06;10414162;28;20204;-80
2021/07/01 15:47:57;;;;;;;4.60;2.87;;;;;;;16.86;100.00;99055.84;10431539;28;20199;-80
2021/07/01 15:53:16;;;;;;;7.47;3.40;;;;;;;16.81;100.00;99059.13;10455152;28;20180;-80
2021/07/01 15:58:35;;;;;;;3.90;3.13;;;;;;;16.75;100.00;99062.13;10460687;28;20267;-79
2021/07/01 16:03:55;;;;;;;5.60;3.13;;;;;;;16.50;100.00;99062.03;10461380;28;20250;-80
2021/07/01 16:09:14;;;;;;;10.87;3.80;;;;;;;16.49;100.00;99057.72;10462145;28;20195;-79
2021/07/01 16:14:33;;;;;;;3.77;3.40;;;;;;;16.47;100.00;99069.25;10461997;28;20227;-79
2021/07/01 16:19:51;;;;;;;2.83;2.53;;;;;;;16.38;100.00;99066.34;10459792;28;20187;-80
2021/07/01 16:25:11;;;;;;;4.57;3.70;;;;;;;16.48;100.00;99068.03;10435323;28;20180;-80
2021/07/01 16:30:29;;;;;;;5.77;3.90;;;;;;;16.36;100.00;99073.53;10419011;28;20215;-79
2021/07/01 16:35:50;;;;;;;7.03;3.50;;;;;;;16.29;100.00;99079.28;10419118;28;20250;-80
2021/07/01 16:41:10;;;;;;;3.70;3.07;;;;;;;16.06;100.00;99076.72;10418484;28;20184;-79
2021/07/01 16:46:37;;;;;;;9.50;3.70;;;;;;;15.97;100.00;99080.09;10428058;28;20579;-79
2021/07/01 16:52:01;;;;;;;4.83;3.90;;;;;;;15.95;100.00;99078.97;10459010;28;20302;-80
2021/07/01 16:57:22;;;;;;;3.63;2.90;;;;;;;15.90;100.00;99082.28;10460789;28;20179;-80
2021/07/01 17:02:42;;;;;;;5.67;4.30;;;;;;;15.85;100.00;99082.78;10463411;28;20215;-80
2021/07/01 17:08:01;;;;;;;7.13;3.97;;;;;;;15.88;100.00;99093.00;10460887;28;20290;-81
2021/07/01 17:13:24;;;;;;;5.67;3.53;;;;;;;15.79;100.00;99095.63;10464831;28;20215;-80
2021/07/01 17:18:50;;;;;;;9.53;3.73;;;;;;;15.75;100.00;99102.47;10465554;28;20184;-80
2021/07/01 17:24:09;;;;;;;7.50;3.73;;;;;;;15.58;100.00;99090.59;10462722;28;20995;-79
2021/07/01 17:29:29;;;;;;;8.63;3.80;;;;;;;15.52;100.00;99089.53;10466368;28;20203;-80
2021/07/01 17:34:49;;;;;;;6.57;3.83;;;;;;;15.47;100.00;99087.28;10436192;28;20290;-80
2021/07/01 17:40:11;;;;;;;7.67;4.33;;;;;;;15.48;100.00;99097.16;10461733;28;20187;-79
2021/07/01 17:45:30;;;;;;;5.17;3.33;;;;;;;15.51;100.00;99101.81;10451245;28;20219;-80
2021/07/01 17:50:51;;;;;;;5.80;3.80;;;;;;;15.56;100.00;99101.31;10438419;28;20208;-80
2021/07/01 17:56:10;;;;;;;8.47;3.20;;;;;;;15.56;100.00;99103.28;10462442;28;20191;-80
2021/07/01 18:01:28;;;;;;;7.97;4.37;;;;;;;15.55;100.00;99098.97;10463398;28;20191;-80
2021/07/01 18:06:48;;;;;;;8.57;4.13;;;;;;;15.67;100.00;99101.84;10438332;28;20222;-79
2021/07/01 18:12:10;;;;;;;5.93;2.83;;;;;;;15.61;100.00;99103.56;10456192;28;20559;-80
2021/07/01 18:17:30;;;;;;;4.30;3.20;;;;;;;15.60;100.00;99110.31;10454317;28;20211;-80
2021/07/01 18:22:49;;;;;;;6.30;2.90;;;;;;;15.57;100.00;99115.97;10455350;28;20175;-79
2021/07/01 18:28:08;;;;;;;4.90;3.67;;;;;;;15.43;100.00;99122.59;10456083;28;20211;-80
2021/07/01 18:33:27;;;;;;;8.67;3.73;;;;;;;15.39;100.00;99121.91;10454978;28;20187;-82
2021/07/01 18:38:46;;;;;;;7.83;3.73;;;;;;;15.34;100.00;99124.41;10456107;28;20183;-80
2021/07/01 18:44:07;;;;;;;5.50;3.13;;;;;;;15.31;100.00;99119.72;10456398;28;20539;-80
2021/07/01 18:49:26;;;;;;;8.87;3.10;;;;;;;15.27;100.00;99136.41;10454078;28;20685;-81
2021/07/01 18:54:45;;;;;;;3.90;3.50;;;;;;;15.29;100.00;99136.78;10455891;28;20653;-80
2021/07/01 19:00:05;;;;;;;5.03;3.67;;;;;;;15.16;100.00;99144.16;10455410;28;20633;-79
2021/07/01 19:05:24;;;;;;;4.33;3.30;;;;;;;15.13;100.00;99147.03;10453482;28;20172;-80
2021/07/01 19:10:43;;;;;;;5.17;2.80;;;;;;;15.04;100.00;99146.00;10453414;28;20235;-79
2021/07/01 19:16:02;;;;;;;7.90;3.90;;;;;;;14.83;100.00;99146.44;10454999;28;20215;-79
2021/07/01 19:21:21;;;;;;;4.83;2.43;;;;;;;14.77;100.00;99129.53;10439420;28;20183;-80
2021/07/01 19:26:41;;;;;;;6.20;3.30;;;;;;;14.85;100.00;99146.81;10453295;28;20175;-79
2021/07/01 19:32:00;;;;;;;7.43;3.10;;;;;;;14.61;100.00;99150.84;10458682;28;20203;-80
2021/07/01 19:37:22;;;;;;;5.30;3.40;;;;;;;14.62;100.00;99144.06;10463742;28;20285;-79
2021/07/01 19:42:43;;;;;;;5.33;3.37;;;;;;;14.49;100.00;99148.69;10463450;28;20269;-80
2021/07/01 19:48:03;;;;;;;4.47;3.40;;;;;;;14.39;100.00;99152.41;10461050;28;20646;-80
2021/07/01 19:53:25;;;;;;;7.10;3.83;;;;;;;14.47;100.00;99151.88;10461638;28;20187;-79
2021/07/01 19:58:48;;;;;;;9.33;4.17;;;;;;;14.51;100.00;99151.81;10462466;28;20191;-80
2021/07/01 20:04:09;;;;;;;8.43;4.70;;;;;;;14.51;100.00;99162.88;10460108;28;20187;-80
2021/07/01 20:09:29;;;;;;;4.90;3.83;;;;;;;14.44;100.00;99163.78;10461667;28;20207;-80
2021/07/01 20:14:47;;;;;;;5.00;4.00;;;;;;;14.35;100.00;99163.56;10461227;28;20223;-79
2021/07/01 20:20:07;;;;;;;4.93;3.63;;;;;;;14.37;100.00;99166.69;10460567;28;20626;-80
2021/07/01 20:25:26;;;;;;;9.63;3.90;;;;;;;14.43;100.00;99175.28;10460425;28;20216;-80
2021/07/01 20:30:45;;;;;;;9.87;3.60;;;;;;;14.29;100.00;99171.97;10461036;28;20211;-79
2021/07/01 20:36:04;;;;;;;5.80;3.70;;;;;;;14.29;100.00;99174.75;10459942;28;20199;-80
2021/07/01 20:41:23;;;;;;;6.07;4.17;;;;;;;14.33;100.00;99176.25;10460694;28;20187;-80
2021/07/01 20:46:42;;;;;;;4.90;3.47;;;;;;;14.39;100.00;99180.09;10460848;28;20179;-80
2021/07/01 20:52:02;;;;;;;5.60;3.87;;;;;;;14.47;100.00;99165.72;10457218;28;20207;-80
2021/07/01 20:57:21;;;;;;;12.57;5.30;;;;;;;14.51;100.00;99171.19;10460030;28;20629;-80
2021/07/01 21:02:40;;;;;;;6.00;3.53;;;;;;;14.47;100.00;99176.00;10458259;28;20180;-79
2021/07/01 21:08:03;;;;;;;12.57;6.07;;;;;;;14.55;100.00;99178.22;10460146;28;20211;-80
2021/07/01 21:13:27;;;;;;;9.70;4.67;;;;;;;14.53;100.00;99172.31;10458742;28;20219;-80
2021/07/01 21:18:47;;;;;;;10.00;4.93;;;;;;;14.47;100.00;99178.75;10457689;28;20183;-81
2021/07/01 21:24:08;;;;;;;6.73;4.00;;;;;;;14.60;100.00;99176.97;10459750;28;20191;-80
2021/07/01 21:29:28;;;;;;;8.90;4.70;;;;;;;14.61;100.00;99171.00;10417434;28;20569;-80
2021/07/01 21:34:47;;;;;;;21.30;5.07;;;;;;;14.59;100.00;99167.09;10416121;28;20686;-80
2021/07/01 21:40:06;;;;;;;9.00;4.13;;;;;;;14.56;100.00;99163.19;10417987;28;20266;-80
2021/07/01 21:45:27;;;;;;;10.60;3.40;;;;;;;14.61;100.00;99162.69;10417557;28;20626;-79
2021/07/01 21:50:48;;;;;;;7.50;5.07;;;;;;;14.73;100.00;99161.28;10439249;28;20203;-80
2021/07/01 21:56:10;;;;;;;8.97;4.83;;;;;;;14.65;100.00;99160.66;10457820;28;20175;-80
2021/07/01 22:01:29;;;;;;;8.10;3.67;;;;;;;14.51;100.00;99158.13;10458398;28;20176;-79
2021/07/01 22:06:48;;;;;;;7.20;3.97;;;;;;;14.45;100.00;99159.06;10455815;28;20176;-80
2021/07/01 22:12:10;;;;;;;5.90;3.90;;;;;;;14.50;100.00;99167.63;10456672;28;20677;-80
2021/07/01 22:17:32;;;;;;;28.27;4.90;;;;;;;14.37;100.00;99160.38;10456091;28;20219;-80
2021/07/01 22:22:53;;;;;;;5.13;3.70;;;;;;;14.37;100.00;99154.84;10456582;28;20180;-79
2021/07/01 22:28:12;;;;;;;7.30;4.70;;;;;;;14.31;100.00;99162.06;10456680;28;20195;-79
2021/07/01 22:33:32;;;;;;;5.43;3.93;;;;;;;14.27;100.00;99157.78;10454747;28;20195;-80
2021/07/01 22:38:54;;;;;;;4.57;4.13;;;;;;;14.33;100.00;99164.41;10457536;28;20179;-80
2021/07/01 22:44:13;;;;;;;6.07;3.33;;;;;;;14.32;100.00;99160.84;10457685;28;20175;-80
2021/07/01 22:49:34;;;;;;;7.33;4.00;;;;;;;14.28;100.00;99154.59;10455362;28;20567;-80
2021/07/01 22:54:54;;;;;;;7.57;5.20;;;;;;;14.27;100.00;99155.81;10457366;28;20617;-80
2021/07/01 23:00:14;;;;;;;15.43;5.07;;;;;;;14.30;100.00;99154.19;10455652;28;20630;-79
2021/07/01 23:05:34;;;;;;;5.33;3.77;;;;;;;14.25;100.00;99149.91;10455428;28;20183;-79
2021/07/01 23:10:53;;;;;;;11.93;6.70;;;;;;;14.22;100.00;99149.97;10455557;28;20207;-79
2021/07/01 23:16:12;;;;;;;7.53;4.03;;;;;;;14.28;100.00;99142.75;10454450;28;20215;-79
2021/07/01 23:21:31;;;;;;;7.93;4.77;;;;;;;14.34;100.00;99139.06;10453265;28;20203;-79
2021/07/01 23:26:50;;;;;;;6.23;3.70;;;;;;;14.34;100.00;99144.59;10454722;28;20259;-79
2021/07/01 23:32:09;;;;;;;6.50;4.57;;;;;;;14.33;100.00;99140.28;10454532;28;20234;-80
2021/07/01 23:37:29;;;;;;;5.77;4.50;;;;;;;14.25;100.00;99138.06;10454592;28;20636;-79
2021/07/01 23:42:48;;;;;;;7.50;3.60;;;;;;;14.23;100.00;99130.16;10455366;28;20179;-79
2021/07/01 23:48:07;;;;;;;7.20;4.40;;;;;;;14.30;100.00;99145.88;10453920;28;20266;-79
2021/07/01 23:53:26;;;;;;;7.23;4.57;;;;;;;14.25;100.00;99146.38;10455073;28;20191;-80
2021/07/01 23:58:45;;;;;;;6.13;4.33;;;;;;;14.20;100.00;99147.63;10454202;28;20183;-80
